Time;durP1;ratioP1;P1;durP2;ratioP2;P2;SDS_P1;SDS_P2;PMS_P1;PMS_P2;Temp;Humidity;BMP_temperature;BMP_pressure;BME280_temperature;BME280_humidity;BME280_pressure;Samples;Min_cycle;Max_cycle;Signal;HPM_P1;HPM_P2
2023/08/18 00:01:36;;;;;;;;;;;;;;;18.41;83.29297;101980;;;;-81
2023/08/18 00:06:35;;;;;;;;;;;;;;;18.39;83.77344;101982.1;;;;-80
2023/08/18 00:11:26;;;;;;;10.4;6.5;;;;;;;;;;;;;-81
2023/08/18 00:11:39;;;;;;;;;;;;;;;18.43;83.58691;101988.1;;;;-81
2023/08/18 00:16:35;;;;;;;;;;;;;;;18.35;84.70996;101983.2;;;;-81
2023/08/18 00:21:35;;;;;;;;;;;;;;;18.3;85.17383;101981.6;;;;-80
2023/08/18 00:26:36;;;;;;;;;;;;;;;18.24;84.10352;101976.3;;;;-79
2023/08/18 00:31:35;;;;;;;;;;;;;;;18.24;83.93359;101976.2;;;;-79
2023/08/18 00:36:35;;;;;;;;;;;;;;;18.15;85.67188;101969.7;;;;-80
2023/08/18 00:41:28;;;;;;;10.9;7.6;;;;;;;;;;;;;-80
2023/08/18 00:41:44;;;;;;;;;;;;;;;18.08;84.93848;101956.4;;;;-79
2023/08/18 00:46:40;;;;;;;;;;;;;;;18.18;84.89063;101963.2;;;;-81
2023/08/18 00:51:42;;;;;;;;;;;;;;;18.15;85.72852;101958.6;;;;-81
2023/08/18 00:56:35;;;;;;;;;;;;;;;18.08;86.20898;101956.8;;;;-80
2023/08/18 01:01:36;;;;;;;;;;;;;;;18.05;86.92285;101957;;;;-81
2023/08/18 01:06:44;;;;;;;;;;;;;;;18.02;85.71484;101960.9;;;;-80
2023/08/18 01:11:39;;;;;;;12.1;8;;;;;;;;;;;;;-80
2023/08/18 01:11:59;;;;;;;;;;;;;;;17.69;87.05371;101911.4;;;;-80
2023/08/18 01:16:35;;;;;;;;;;;;;;;17.91;88.21875;101963;;;;-82
2023/08/18 01:21:36;;;;;;;;;;;;;;;17.9;88.11621;101960.5;;;;-81
2023/08/18 01:26:43;;;;;;;;;;;;;;;17.88;87.27051;101958.6;;;;-79
2023/08/18 01:31:38;;;;;;;;;;;;;;;17.84;87.26172;101956.5;;;;-79
2023/08/18 01:36:37;;;;;;;;;;;;;;;17.81;86.86328;101948.5;;;;-80
2023/08/18 01:41:37;;;;;;;10.7;7.5;;;;;;;;;;;;;-82
2023/08/18 01:41:51;;;;;;;;;;;;;;;17.47;86.67383;101910.5;;;;-79
2023/08/18 01:46:38;;;;;;;;;;;;;;;17.75;85.75195;101948.3;;;;-81
2023/08/18 01:51:35;;;;;;;;;;;;;;;17.74;84.64844;101937.1;;;;-81
2023/08/18 01:56:38;;;;;;;;;;;;;;;17.73;84.13184;101933.1;;;;-79
2023/08/18 02:01:35;;;;;;;;;;;;;;;17.75;83.66309;101925.5;;;;-80
2023/08/18 02:06:35;;;;;;;;;;;;;;;17.77;83.12891;101922.9;;;;-80
2023/08/18 02:11:35;;;;;;;;;;;;;;;17.72;85.1748;101924.3;;;;-80
2023/08/18 02:11:45;;;;;;;9.3;6.8;;;;;;;;;;;;;-80
2023/08/18 02:16:38;;;;;;;;;;;;;;;17.68;85.54785;101937.1;;;;-81
2023/08/18 02:21:35;;;;;;;;;;;;;;;17.65;85.44141;101937.9;;;;-81
2023/08/18 02:26:35;;;;;;;;;;;;;;;17.63;86.00879;101937.5;;;;-81
2023/08/18 02:31:36;;;;;;;;;;;;;;;17.47;86.06836;101932.2;;;;-82
2023/08/18 02:36:35;;;;;;;;;;;;;;;17.46;87.68262;101927.7;;;;-79
2023/08/18 02:41:38;;;;;;;;;;;;;;;17.38;88.65234;101927;;;;-79
2023/08/18 02:46:35;;;;;;;;;;;;;;;17.33;89.68555;101920;;;;-79
2023/08/18 02:51:35;;;;;;;;;;;;;;;17.32;89.44727;101910.6;;;;-79
2023/08/18 02:56:37;;;;;;;;;;;;;;;17.35;87.80664;101902.1;;;;-79
2023/08/18 03:01:35;;;;;;;;;;;;;;;17.29;91.98633;101906.5;;;;-78
2023/08/18 03:06:35;;;;;;;;;;;;;;;17.28;92.86621;101900.8;;;;-81
2023/08/18 03:11:35;;;;;;;;;;;;;;;17.21;93.7041;101899.3;;;;-80
2023/08/18 03:11:45;;;;;;;12;8;;;;;;;;;;;;;-80
2023/08/18 03:16:35;;;;;;;;;;;;;;;17.2;93.36621;101894.7;;;;-81
2023/08/18 03:21:37;;;;;;;;;;;;;;;17.2;94.03613;101885.9;;;;-81
2023/08/18 03:26:37;;;;;;;;;;;;;;;17.15;94.48438;101880.5;;;;-82
2023/08/18 03:31:37;;;;;;;;;;;;;;;17.15;95.83789;101871.3;;;;-81
2023/08/18 03:36:36;;;;;;;;;;;;;;;17.05;96.94531;101870.7;;;;-80
2023/08/18 03:41:37;;;;;;;;;;;;;;;16.97;97.76758;101863.3;;;;-80
2023/08/18 03:41:47;;;;;;;12.7;8.2;;;;;;;;;;;;;-80
2023/08/18 03:46:36;;;;;;;;;;;;;;;17.01;97.78418;101882.2;;;;-81
2023/08/18 03:51:35;;;;;;;;;;;;;;;16.97;98.94922;101879.9;;;;-79
2023/08/18 03:56:35;;;;;;;;;;;;;;;16.98;98.7627;101869.3;;;;-80
2023/08/18 04:01:36;;;;;;;;;;;;;;;17.03;99.09668;101864.7;;;;-82
2023/08/18 04:06:36;;;;;;;;;;;;;;;17.05;99.30176;101868.2;;;;-80
2023/08/18 04:11:35;;;;;;;;;;;;;;;17.07;98.66992;101865;;;;-80
2023/08/18 04:11:53;;;;;;;10.4;7.1;;;;;;;;;;;;;-80
2023/08/18 04:16:35;;;;;;;;;;;;;;;17.09;99.03125;101860.3;;;;-79
2023/08/18 04:21:35;;;;;;;;;;;;;;;17.12;97.51953;101863.4;;;;-80
2023/08/18 04:26:37;;;;;;;;;;;;;;;17.18;95.79883;101854.7;;;;-81
2023/08/18 04:31:35;;;;;;;;;;;;;;;17.26;97.48242;101862.5;;;;-80
2023/08/18 04:36:35;;;;;;;;;;;;;;;17.26;96.91211;101871.3;;;;-81
2023/08/18 04:41:36;;;;;;;;;;;;;;;17.28;96.16699;101870.7;;;;-80
2023/08/18 04:41:54;;;;;;;9.1;6.3;;;;;;;;;;;;;-81
2023/08/18 04:46:36;;;;;;;;;;;;;;;17.31;95.9043;101876.4;;;;-81
2023/08/18 04:51:35;;;;;;;;;;;;;;;17.36;95.97266;101870.4;;;;-81
2023/08/18 04:56:36;;;;;;;;;;;;;;;17.4;93.38379;101863.7;;;;-81
2023/08/18 05:01:37;;;;;;;;;;;;;;;17.45;94.61523;101870.9;;;;-81
2023/08/18 05:06:37;;;;;;;;;;;;;;;17.43;95.16016;101870.1;;;;-81
2023/08/18 05:11:35;;;;;;;;;;;;;;;17.47;94.33984;101865.4;;;;-81
2023/08/18 05:12:07;;;;;;;8.7;5.6;;;;;;;;;;;;;-82
2023/08/18 05:16:35;;;;;;;;;;;;;;;17.48;94.8457;101860.8;;;;-81
2023/08/18 05:21:37;;;;;;;;;;;;;;;17.52;94.96484;101857.3;;;;-80
2023/08/18 05:26:35;;;;;;;;;;;;;;;17.58;94.67676;101859.2;;;;-80
2023/08/18 05:31:37;;;;;;;;;;;;;;;17.57;94.62012;101851.8;;;;-81
2023/08/18 05:36:36;;;;;;;;;;;;;;;17.57;95.12402;101845.8;;;;-80
2023/08/18 05:41:35;;;;;;;;;;;;;;;17.65;94.67871;101845.5;;;;-80
2023/08/18 05:41:58;;;;;;;11.1;6;;;;;;;;;;;;;-81
2023/08/18 05:46:35;;;;;;;;;;;;;;;17.72;94.19043;101851.6;;;;-80
2023/08/18 05:51:35;;;;;;;;;;;;;;;17.76;94.08594;101852.2;;;;-78
2023/08/18 05:56:35;;;;;;;;;;;;;;;17.81;91.64258;101840.1;;;;-80
2023/08/18 06:01:35;;;;;;;;;;;;;;;17.94;92.50098;101841.2;;;;-82
2023/08/18 06:06:35;;;;;;;;;;;;;;;18;90.65234;101827.8;;;;-81
2023/08/18 06:11:35;;;;;;;;;;;;;;;18.11;89.06738;101834.3;;;;-79
2023/08/18 06:12:00;;;;;;;8.7;4.7;;;;;;;;;;;;;-82
2023/08/18 06:16:39;;;;;;;;;;;;;;;18.01;91.71777;101834.3;;;;-81
2023/08/18 06:21:36;;;;;;;;;;;;;;;18.05;91.7832;101833;;;;-82
2023/08/18 06:26:35;;;;;;;;;;;;;;;18.14;90.25098;101827;;;;-81
2023/08/18 06:31:36;;;;;;;;;;;;;;;18.26;90.88379;101831;;;;-79
2023/08/18 06:36:36;;;;;;;;;;;;;;;18.4;89.8125;101833.2;;;;-81
2023/08/18 06:41:37;;;;;;;;;;;;;;;18.44;89.50293;101833.5;;;;-81
2023/08/18 06:42:04;;;;;;;7.8;4.4;;;;;;;;;;;;;-81
2023/08/18 06:46:36;;;;;;;;;;;;;;;18.66;88.68164;101818.3;;;;-81
2023/08/18 06:51:35;;;;;;;;;;;;;;;18.87;87.08203;101816.6;;;;-80
2023/08/18 06:56:35;;;;;;;;;;;;;;;19.26;85.59082;101817.2;;;;-79
2023/08/18 07:01:36;;;;;;;;;;;;;;;19.44;84.26172;101824.9;;;;-80
2023/08/18 07:06:38;;;;;;;;;;;;;;;19.85;82.54297;101827.3;;;;-81
2023/08/18 07:11:38;;;;;;;;;;;;;;;19.7;81.19531;101826.3;;;;-80
2023/08/18 07:12:07;;;;;;;9.1;5.9;;;;;;;;;;;;;-81
2023/08/18 07:16:35;;;;;;;;;;;;;;;19.75;81.45215;101827.6;;;;-81
2023/08/18 07:21:35;;;;;;;;;;;;;;;19.72;81.41309;101826.9;;;;-80
2023/08/18 07:26:35;;;;;;;;;;;;;;;19.83;81.11621;101829.7;;;;-79
2023/08/18 07:31:35;;;;;;;;;;;;;;;19.85;80.55469;101826.5;;;;-82
2023/08/18 07:36:35;;;;;;;;;;;;;;;19.95;80.49414;101825.2;;;;-82
2023/08/18 07:41:38;;;;;;;;;;;;;;;20.28;78.65137;101835.3;;;;-80
2023/08/18 07:42:12;;;;;;;8.8;5.5;;;;;;;;;;;;;-79
2023/08/18 07:46:35;;;;;;;;;;;;;;;20.35;77.79297;101843.6;;;;-81
2023/08/18 07:51:36;;;;;;;;;;;;;;;20.37;77.54883;101853.5;;;;-81
2023/08/18 07:56:35;;;;;;;;;;;;;;;20.23;78.31543;101858.5;;;;-81
2023/08/18 08:01:35;;;;;;;;;;;;;;;20.15;78.5166;101847.5;;;;-81
2023/08/18 08:06:35;;;;;;;;;;;;;;;20.39;76.75879;101849.4;;;;-81
2023/08/18 08:11:35;;;;;;;;;;;;;;;20.33;77.32422;101838.7;;;;-82
2023/08/18 08:12:14;;;;;;;13.6;6.8;;;;;;;;;;;;;-81
2023/08/18 08:16:36;;;;;;;;;;;;;;;20.85;75.77051;101828.4;;;;-82
2023/08/18 08:21:36;;;;;;;;;;;;;;;21.12;73.58008;101835.2;;;;-79
2023/08/18 08:26:36;;;;;;;;;;;;;;;20.81;74.63184;101813;;;;-81
2023/08/18 08:31:38;;;;;;;;;;;;;;;21.27;73.12695;101821.7;;;;-81
2023/08/18 08:36:36;;;;;;;;;;;;;;;21.54;71.93359;101810.1;;;;-80
2023/08/18 08:41:35;;;;;;;;;;;;;;;21.74;70.17773;101811.5;;;;-79
2023/08/18 08:42:17;;;;;;;8;5.5;;;;;;;;;;;;;-81
2023/08/18 08:46:37;;;;;;;;;;;;;;;21.88;70.6084;101813;;;;-80
2023/08/18 08:51:40;;;;;;;;;;;;;;;22.12;69.47363;101824.9;;;;-82
2023/08/18 08:56:36;;;;;;;;;;;;;;;22.24;68.46582;101816.4;;;;-80
2023/08/18 09:01:36;;;;;;;;;;;;;;;22.4;68.49121;101812.4;;;;-82
2023/08/18 09:06:35;;;;;;;;;;;;;;;22.29;68.12012;101817.3;;;;-79
2023/08/18 09:11:51;;;;;;;;;;;;;;;22.02;69.34473;101825.3;;;;-81
2023/08/18 09:12:24;;;;;;;11;7.4;;;;;;;;;;;;;-81
2023/08/18 09:16:37;;;;;;;;;;;;;;;21.88;70.23242;101827.6;;;;-80
2023/08/18 09:21:35;;;;;;;;;;;;;;;22.07;69.9668;101818.9;;;;-80
2023/08/18 09:26:37;;;;;;;;;;;;;;;22.33;69.4248;101816;;;;-80
2023/08/18 09:31:35;;;;;;;;;;;;;;;22.68;67.9502;101816.6;;;;-81
2023/08/18 09:36:35;;;;;;;;;;;;;;;22.83;66.61426;101811;;;;-81
2023/08/18 09:41:35;;;;;;;;;;;;;;;23.47;65.03809;101813.1;;;;-82
2023/08/18 09:42:26;;;;;;;10.1;6.7;;;;;;;;;;;;;-81
2023/08/18 09:46:38;;;;;;;;;;;;;;;23.84;63.24609;101810.6;;;;-81
2023/08/18 09:51:46;;;;;;;;;;;;;;;24.24;62.625;101815.8;;;;-82
2023/08/18 09:56:41;;;;;;;;;;;;;;;24.67;60.45605;101801.8;;;;-82
2023/08/18 10:01:37;;;;;;;;;;;;;;;24.56;60.08594;101798.7;;;;-85
2023/08/18 10:06:39;;;;;;;;;;;;;;;24.62;60.01465;101806.7;;;;-83
2023/08/18 10:11:37;;;;;;;;;;;;;;;24.54;59.83008;101805.3;;;;-80
2023/08/18 10:12:31;;;;;;;10.5;7;;;;;;;;;;;;;-82
2023/08/18 10:16:37;;;;;;;;;;;;;;;24.35;60.63379;101804.3;;;;-81
2023/08/18 10:21:35;;;;;;;;;;;;;;;24.41;61.12207;101782.7;;;;-79
2023/08/18 10:26:37;;;;;;;;;;;;;;;24.49;60.47949;101795;;;;-81
2023/08/18 10:31:46;;;;;;;;;;;;;;;24.76;60.23926;101785.6;;;;-80
2023/08/18 10:36:36;;;;;;;;;;;;;;;24.54;60.15137;101783.5;;;;-80
2023/08/18 10:41:35;;;;;;;;;;;;;;;24.37;61.39258;101778.6;;;;-81
2023/08/18 10:42:36;;;;;;;12.3;7.3;;;;;;;;;;;;;-81
2023/08/18 10:46:41;;;;;;;;;;;;;;;24.35;61.62109;101781.7;;;;-81
2023/08/18 10:51:35;;;;;;;;;;;;;;;24.68;60.49316;101766.6;;;;-81
2023/08/18 10:56:37;;;;;;;;;;;;;;;25.06;59.57813;101754;;;;-82
2023/08/18 11:01:39;;;;;;;;;;;;;;;24.98;59.57813;101751.1;;;;-82
2023/08/18 11:06:35;;;;;;;;;;;;;;;25.48;58.16992;101756.7;;;;-83
2023/08/18 11:11:35;;;;;;;;;;;;;;;25.56;58.74414;101749.3;;;;-82
2023/08/18 11:12:40;;;;;;;11.3;7.9;;;;;;;;;;;;;-82
2023/08/18 11:16:41;;;;;;;;;;;;;;;25.46;57.90234;101746.4;;;;-82
2023/08/18 11:21:36;;;;;;;;;;;;;;;25.21;59.32129;101741.4;;;;-81
2023/08/18 11:26:39;;;;;;;;;;;;;;;25.24;59.46289;101737;;;;-81
2023/08/18 11:36:51;;;;;;;;;;;;;;;25.9;57.42871;101731.3;;;;-83
2023/08/18 11:42:50;;;;;;;9.9;7;;;;;;;;;;;;;-82
2023/08/18 11:51:00;;;;;;;;;;;;;;;26.04;58.17383;101700.3;;;;-82
2023/08/18 11:59:27;;;;;;;;;;;;;;;26.08;57.05859;101691.6;;;;-84
2023/08/18 12:04:21;;;;;;;;;;;;;;;26.1;57.83496;101690.2;;;;-84
2023/08/18 12:09:23;;;;;;;;;;;;;;;26.57;56.64746;101698.7;;;;-84
2023/08/18 12:12:57;;;;;;;14.1;9.3;;;;;;;;;;;;;-83
2023/08/18 12:14:27;;;;;;;;;;;;;;;26.86;54.9707;101700.9;;;;-83
2023/08/18 12:19:21;;;;;;;;;;;;;;;26.36;57.78613;101695.9;;;;-84
2023/08/18 12:24:26;;;;;;;;;;;;;;;26.94;58.64844;101684.4;;;;-85
2023/08/18 12:29:31;;;;;;;;;;;;;;;26.78;56.61621;101667.6;;;;-84
2023/08/18 12:34:23;;;;;;;;;;;;;;;27.08;55.03223;101668.5;;;;-83
2023/08/18 12:39:36;;;;;;;;;;;;;;;26.92;55.29199;101666.1;;;;-84
2023/08/18 12:43:02;;;;;;;14.2;9.2;;;;;;;;;;;;;-83
2023/08/18 12:44:29;;;;;;;;;;;;;;;27.09;55.56543;101665;;;;-84
2023/08/18 12:49:26;;;;;;;;;;;;;;;27.21;54.93164;101657.3;;;;-80
2023/08/18 12:54:22;;;;;;;;;;;;;;;27.73;55.14648;101650;;;;-82
2023/08/18 12:59:25;;;;;;;;;;;;;;;28.14;56.02148;101656.2;;;;-84
2023/08/18 13:04:22;;;;;;;;;;;;;;;28.57;55.92188;101651.2;;;;-83
2023/08/18 13:09:23;;;;;;;;;;;;;;;28.67;54.90039;101657.3;;;;-82
2023/08/18 13:13:03;;;;;;;9.3;6.1;;;;;;;;;;;;;-83
2023/08/18 13:14:24;;;;;;;;;;;;;;;29.05;50.65527;101662.6;;;;-87
2023/08/18 13:19:30;;;;;;;;;;;;;;;29.08;50.18066;101651;;;;-83
2023/08/18 13:24:21;;;;;;;;;;;;;;;29.11;50.34766;101644;;;;-83
2023/08/18 13:29:21;;;;;;;;;;;;;;;29.14;50.90918;101647.3;;;;-85
2023/08/18 13:34:28;;;;;;;;;;;;;;;29.63;56.83398;101644.8;;;;-83
2023/08/18 13:39:26;;;;;;;;;;;;;;;29.86;48.48242;101638.9;;;;-83
2023/08/18 13:43:05;;;;;;;12.3;8.5;;;;;;;;;;;;;-83
2023/08/18 13:44:23;;;;;;;;;;;;;;;29.85;52.12012;101638.6;;;;-84
2023/08/18 13:49:25;;;;;;;;;;;;;;;29.86;49.92969;101640;;;;-83
2023/08/18 13:54:22;;;;;;;;;;;;;;;29.72;49.21289;101636.3;;;;-83
2023/08/18 13:59:21;;;;;;;;;;;;;;;29.46;49.54688;101626;;;;-84
2023/08/18 14:04:21;;;;;;;;;;;;;;;29.91;50.35449;101625.5;;;;-82
2023/08/18 14:09:26;;;;;;;;;;;;;;;30.09;48.78711;101623.4;;;;-84
2023/08/18 14:13:18;;;;;;;9.9;6.9;;;;;;;;;;;;;-84
2023/08/18 14:14:32;;;;;;;;;;;;;;;30.06;48.43457;101619.8;;;;-82
2023/08/18 14:19:21;;;;;;;;;;;;;;;30.07;48.23633;101604.5;;;;-82
2023/08/18 14:24:40;;;;;;;;;;;;;;;30.22;49.94434;101622;;;;-85
2023/08/18 14:29:24;;;;;;;;;;;;;;;30.21;48.34473;101621.6;;;;-84
2023/08/18 14:34:29;;;;;;;;;;;;;;;30.21;49.1377;101624.6;;;;-84
2023/08/18 14:39:21;;;;;;;;;;;;;;;30.26;48.53809;101620.9;;;;-86
2023/08/18 14:43:31;;;;;;;11.9;7.8;;;;;;;;;;;;;-86
2023/08/18 14:44:23;;;;;;;;;;;;;;;30.23;48.84766;101614.1;;;;-82
2023/08/18 14:49:21;;;;;;;;;;;;;;;29.93;49.66895;101595.9;;;;-85
2023/08/18 14:54:24;;;;;;;;;;;;;;;29.5;50.06348;101586.9;;;;-84
2023/08/18 14:59:20;;;;;;;;;;;;;;;29.16;51.5752;101590.3;;;;-82
2023/08/18 15:04:23;;;;;;;;;;;;;;;29.15;51.41113;101582.6;;;;-83
2023/08/18 15:09:22;;;;;;;;;;;;;;;29.17;53.92676;101568.6;;;;-84
2023/08/18 15:13:22;;;;;;;14.3;9.8;;;;;;;;;;;;;-84
2023/08/18 15:14:21;;;;;;;;;;;;;;;29.08;51.4502;101568.2;;;;-84
2023/08/18 15:19:27;;;;;;;;;;;;;;;28.74;52.52734;101574.1;;;;-85
2023/08/18 15:24:26;;;;;;;;;;;;;;;28.67;53.13477;101574.1;;;;-85
2023/08/18 15:29:21;;;;;;;;;;;;;;;28.75;53.5293;101578.5;;;;-85
2023/08/18 15:34:24;;;;;;;;;;;;;;;28.6;53.41699;101576.6;;;;-83
2023/08/18 15:39:22;;;;;;;;;;;;;;;28.6;54.68457;101569.7;;;;-85
2023/08/18 15:43:27;;;;;;;18.4;13.4;;;;;;;;;;;;;-84
2023/08/18 15:44:22;;;;;;;;;;;;;;;28.57;54.37793;101556.4;;;;-85
2023/08/18 15:49:25;;;;;;;;;;;;;;;28.3;54.96094;101549;;;;-84
2023/08/18 15:54:27;;;;;;;;;;;;;;;28.35;55.80273;101551;;;;-84
2023/08/18 15:59:21;;;;;;;;;;;;;;;28.4;55.1123;101544.1;;;;-83
2023/08/18 16:04:22;;;;;;;;;;;;;;;28.1;55.98145;101533.5;;;;-84
2023/08/18 16:09:21;;;;;;;;;;;;;;;28.08;56.54688;101529.5;;;;-84
2023/08/18 16:13:32;;;;;;;13.9;10;;;;;;;;;;;;;-82
2023/08/18 16:14:23;;;;;;;;;;;;;;;28.09;56.37402;101534.1;;;;-86
2023/08/18 16:19:22;;;;;;;;;;;;;;;27.77;57.38867;101524.8;;;;-83
2023/08/18 16:24:21;;;;;;;;;;;;;;;27.75;58.0918;101521.1;;;;-82
2023/08/18 16:29:21;;;;;;;;;;;;;;;27.58;58.5918;101519;;;;-86
2023/08/18 16:34:21;;;;;;;;;;;;;;;27.51;58.79102;101520.9;;;;-85
2023/08/18 16:39:21;;;;;;;;;;;;;;;27.26;59.86816;101513.5;;;;-87
2023/08/18 16:43:38;;;;;;;17.7;12.2;;;;;;;;;;;;;-85
2023/08/18 16:44:24;;;;;;;;;;;;;;;27.05;60.71777;101504.7;;;;-82
2023/08/18 16:49:21;;;;;;;;;;;;;;;26.87;61.65332;101499.8;;;;-86
2023/08/18 16:54:22;;;;;;;;;;;;;;;26.82;62.10938;101498.2;;;;-84
2023/08/18 16:59:21;;;;;;;;;;;;;;;26.7;62.59961;101494.2;;;;-86
2023/08/18 17:04:26;;;;;;;;;;;;;;;26.77;62.77051;101491.2;;;;-85
2023/08/18 17:09:21;;;;;;;;;;;;;;;26.67;63.22949;101485.6;;;;-84
2023/08/18 17:13:44;;;;;;;18.4;11.6;;;;;;;;;;;;;-84
2023/08/18 17:14:22;;;;;;;;;;;;;;;26.66;63.52734;101491.6;;;;-83
2023/08/18 17:19:22;;;;;;;;;;;;;;;26.73;63.31836;101470.5;;;;-82
2023/08/18 17:24:20;;;;;;;;;;;;;;;26.65;64.0459;101470.1;;;;-85
2023/08/18 17:29:22;;;;;;;;;;;;;;;26.37;65.00977;101481.6;;;;-85
2023/08/18 17:34:20;;;;;;;;;;;;;;;26.14;65.49414;101467.6;;;;-84
2023/08/18 17:39:20;;;;;;;;;;;;;;;25.9;67.25391;101458.8;;;;-84
2023/08/18 17:43:46;;;;;;;16.6;11.3;;;;;;;;;;;;;-84
2023/08/18 17:44:23;;;;;;;;;;;;;;;25.75;67.46191;101469.9;;;;-85
2023/08/18 17:49:20;;;;;;;;;;;;;;;25.5;69.05469;101471;;;;-81
2023/08/18 17:54:20;;;;;;;;;;;;;;;25.22;70.42383;101473;;;;-82
2023/08/18 17:59:25;;;;;;;;;;;;;;;25.2;70.85645;101468.5;;;;-78
2023/08/18 18:04:26;;;;;;;;;;;;;;;25.14;71.37598;101473.7;;;;-82
2023/08/18 18:09:20;;;;;;;;;;;;;;;25.04;71.69238;101466.6;;;;-80
2023/08/18 18:13:51;;;;;;;19.1;11.3;;;;;;;;;;;;;-80
2023/08/18 18:14:20;;;;;;;;;;;;;;;24.93;72.99121;101461.3;;;;-82
2023/08/18 18:19:20;;;;;;;;;;;;;;;24.78;74.03223;101469.7;;;;-79
2023/08/18 18:24:22;;;;;;;;;;;;;;;24.79;72.75195;101469.9;;;;-80
2023/08/18 18:29:24;;;;;;;;;;;;;;;24.77;74.77539;101459.1;;;;-79
2023/08/18 18:34:24;;;;;;;;;;;;;;;24.64;75.37207;101457.3;;;;-79
2023/08/18 18:39:21;;;;;;;;;;;;;;;24.54;75.21777;101457.6;;;;-80
2023/08/18 18:43:57;;;;;;;17;11.6;;;;;;;;;;;;;-79
2023/08/18 18:44:21;;;;;;;;;;;;;;;24.41;76.81934;101455.4;;;;-79
2023/08/18 18:49:21;;;;;;;;;;;;;;;24.21;77.19629;101448.1;;;;-80
2023/08/18 18:54:21;;;;;;;;;;;;;;;24.17;79.95313;101451.8;;;;-78
2023/08/18 18:59:22;;;;;;;;;;;;;;;24.05;78.14063;101450.9;;;;-79
2023/08/18 19:04:25;;;;;;;;;;;;;;;23.94;80.7207;101460.3;;;;-77
2023/08/18 19:09:28;;;;;;;;;;;;;;;23.81;81.24707;101456.3;;;;-80
2023/08/18 19:14:03;;;;;;;14.9;11.6;;;;;;;;;;;;;-80
2023/08/18 19:14:22;;;;;;;;;;;;;;;23.68;83.27344;101458.5;;;;-78
2023/08/18 19:19:21;;;;;;;;;;;;;;;23.58;81.7168;101459.9;;;;-79
2023/08/18 19:24:23;;;;;;;;;;;;;;;23.49;83.375;101459.8;;;;-79
2023/08/18 19:29:26;;;;;;;;;;;;;;;23.49;83.36328;101460.4;;;;-80
2023/08/18 19:34:23;;;;;;;;;;;;;;;23.43;84.77734;101467.6;;;;-79
2023/08/18 19:39:21;;;;;;;;;;;;;;;23.41;85.14648;101474.1;;;;-80
2023/08/18 19:44:04;;;;;;;15.3;11.6;;;;;;;;;;;;;-79
2023/08/18 19:44:24;;;;;;;;;;;;;;;23.39;85.41602;101485.9;;;;-79
2023/08/18 19:49:20;;;;;;;;;;;;;;;23.35;84.92188;101473.4;;;;-79
2023/08/18 20:00:44;;;;;;;;;;;;;;;23.26;86.99512;101467.9;;;;-77
2023/08/18 20:05:44;;;;;;;;;;;;;;;23.24;86.67285;101475.5;;;;-76
2023/08/18 20:10:41;;;;;;;;;;;;;;;23.2;86.90234;101474.6;;;;-75
2023/08/18 20:14:11;;;;;;;16.3;11.8;;;;;;;;;;;;;-76
2023/08/18 20:15:41;;;;;;;;;;;;;;;23.16;87.94141;101470.6;;;;-77
2023/08/18 20:20:41;;;;;;;;;;;;;;;23.1;88.58984;101464.8;;;;-76
2023/08/18 20:25:42;;;;;;;;;;;;;;;23.12;88.5459;101458.7;;;;-75
2023/08/18 20:30:47;;;;;;;;;;;;;;;23.11;87.12598;101466;;;;-75
2023/08/18 20:35:40;;;;;;;;;;;;;;;23.05;87.96582;101457.9;;;;-74
2023/08/18 20:40:40;;;;;;;;;;;;;;;23.06;88.62598;101467;;;;-73
2023/08/18 20:44:21;;;;;;;18;13.1;;;;;;;;;;;;;-76
2023/08/18 20:45:40;;;;;;;;;;;;;;;23.01;89.41211;101470.6;;;;-75
2023/08/18 20:50:41;;;;;;;;;;;;;;;22.95;90.10254;101468.8;;;;-75
2023/08/18 20:55:42;;;;;;;;;;;;;;;22.89;90.1582;101466;;;;-75
2023/08/18 21:00:41;;;;;;;;;;;;;;;22.83;91.25879;101462.5;;;;-74
2023/08/18 21:05:41;;;;;;;;;;;;;;;22.74;91.75;101463.7;;;;-75
2023/08/18 21:10:45;;;;;;;;;;;;;;;22.69;91.93359;101461;;;;-74
2023/08/18 21:14:16;;;;;;;19.1;13.7;;;;;;;;;;;;;-77
2023/08/18 21:15:44;;;;;;;;;;;;;;;22.62;91.41797;101450.3;;;;-75
2023/08/18 21:20:43;;;;;;;;;;;;;;;22.55;92.6748;101438;;;;-75
2023/08/18 21:25:44;;;;;;;;;;;;;;;22.45;91.89453;101420.1;;;;-75
2023/08/18 21:30:41;;;;;;;;;;;;;;;22.47;93.60938;101434.5;;;;-75
2023/08/18 21:35:40;;;;;;;;;;;;;;;22.49;93.43164;101428.1;;;;-73
2023/08/18 21:40:47;;;;;;;;;;;;;;;22.49;94.10156;101416.7;;;;-75
2023/08/18 21:44:23;;;;;;;16.9;12.7;;;;;;;;;;;;;-74
2023/08/18 21:45:42;;;;;;;;;;;;;;;22.53;93.83887;101413.3;;;;-73
2023/08/18 21:50:40;;;;;;;;;;;;;;;22.54;93.64648;101411.9;;;;-74
2023/08/18 21:55:41;;;;;;;;;;;;;;;22.5;93.26563;101398.4;;;;-75
2023/08/18 22:00:40;;;;;;;;;;;;;;;22.53;93.76953;101399;;;;-74
2023/08/18 22:05:41;;;;;;;;;;;;;;;22.55;94;101402.5;;;;-73
2023/08/18 22:10:42;;;;;;;;;;;;;;;22.54;94.75684;101399.8;;;;-74
2023/08/18 22:14:24;;;;;;;20.4;14.7;;;;;;;;;;;;;-74
2023/08/18 22:15:47;;;;;;;;;;;;;;;22.52;94.53613;101390;;;;-74
2023/08/18 22:20:44;;;;;;;;;;;;;;;22.52;94.33203;101383.6;;;;-76
2023/08/18 22:25:40;;;;;;;;;;;;;;;22.5;94.45215;101380.8;;;;-74
2023/08/18 22:30:44;;;;;;;;;;;;;;;22.52;94.36621;101387.3;;;;-75
2023/08/18 22:35:40;;;;;;;;;;;;;;;22.52;94.67383;101382.9;;;;-76
2023/08/18 22:40:40;;;;;;;;;;;;;;;22.5;94.67871;101373.1;;;;-75
2023/08/18 22:44:29;;;;;;;19.5;14.5;;;;;;;;;;;;;-75
2023/08/18 22:45:42;;;;;;;;;;;;;;;22.49;94.58691;101364.8;;;;-74
2023/08/18 22:50:42;;;;;;;;;;;;;;;22.47;93.37109;101361;;;;-74
2023/08/18 22:55:41;;;;;;;;;;;;;;;22.41;95.51074;101356.5;;;;-74
2023/08/18 23:00:45;;;;;;;;;;;;;;;22.32;95.94336;101355;;;;-74
2023/08/18 23:05:46;;;;;;;;;;;;;;;22.22;95.91113;101355.5;;;;-74
2023/08/18 23:10:41;;;;;;;;;;;;;;;22.15;96.83594;101349.5;;;;-73
2023/08/18 23:14:31;;;;;;;26.3;16.9;;;;;;;;;;;;;-76
2023/08/18 23:15:44;;;;;;;;;;;;;;;22.05;98.56348;101344.5;;;;-73
2023/08/18 23:20:47;;;;;;;;;;;;;;;22.01;99.02051;101343.8;;;;-76
2023/08/18 23:25:41;;;;;;;;;;;;;;;21.95;99.15137;101337.4;;;;-75
2023/08/18 23:30:46;;;;;;;;;;;;;;;21.88;99.84863;101337.7;;;;-76
2023/08/18 23:35:50;;;;;;;;;;;;;;;21.84;100;101327.5;;;;-76
2023/08/18 23:40:44;;;;;;;;;;;;;;;21.82;100;101322.6;;;;-75
2023/08/18 23:44:39;;;;;;;26.8;19;;;;;;;;;;;;;-75
2023/08/18 23:45:45;;;;;;;;;;;;;;;21.77;100;101314.9;;;;-75
2023/08/18 23:50:46;;;;;;;;;;;;;;;21.77;100;101313.7;;;;-74
2023/08/18 23:55:51;;;;;;;;;;;;;;;21.76;100;101310.8;;;;-74
